Eagle Rock, MO (65641)

4:23 PM CDT on September 01, 2015 (GMT -0500)
7 Sunview Ln | | Change Station
CLOSE
Current Station
Personal Weather Station
Location: Holiday Island, AR
Elevation: 1115 ft
Nearby Weather Stations

Elev 1115 ft 36.49 °N, 93.72 °W | Updated 2 minutes ago

Partly Cloudy
Partly Cloudy
90.3 °F
Feels Like 91 °F
N
2.0
Wind Variable Wind from East
Gusts 2.0 mph

Today
High -- | Low -- °F
--% Chance of Precip.
Yesterday
High -- | Low -- °F
Precip. -- in
6:46 AM 7:43 PM
Waning Gibbous, 86% visible
Pressure 30.07 in
Visibility 10.0 miles
Clouds Few 6500 ft
Heat Index 91 °F
Dew Point 62 °F
Humidity 39%
Rainfall 0.00 in
Snow Depth Not available.
UV 6 out of 12
Pollen 10.60 out of 12
Air Quality Not available.
Flu Activity Not available.
METAR KFWB 012055Z AUTO 17005KT 10SM FEW065 30/19 A3007 RMK AO2
Pressure 30.07 in
Visibility 10.0 miles
Clouds Few 6500 ft
Heat Index 91 °F
Dew Point 62 °F
Humidity 39%
Rainfall 0.00 in
Snow Depth Not available.
UV 6 out of 12
Pollen 10.60 out of 12
Air Quality Not available.
Flu Activity Not available.
METAR KFWB 012055Z AUTO 17005KT 10SM FEW065 30/19 A3007 RMK AO2

10-Day Weather Forecast

×

Almanac

Astronomy

Sep. 01, 2015 Rise Set
Actual Time
Civil Twilight
Nautical Twilight
Astronomical Twilight
Moon
Length of Visible Light
Length of Day
Tomorrow will be .
, % of the Moon is Illuminated

Today's Extremes

State Highs State Lows

Community

WunderPhotos

Upload Photos

1,851,626 photos uploaded!

WunderBlogs® & News

Nearby

Air Quality

  Air Quality AQ Index Pollutant
Not available.

Snow Depth

Station Depth Elevation

Earthquake Activity

City Distance Mag. Time & Date
Minimum magnitude displayed is 2.5.

Coastal Water Temperatures

Place Temperature

Stations

Nearby Weather Stations

Station Location Temp. Windchill Dew Point Humidity Wind Precip. Elev Updated Type